Time;durP1;ratioP1;P1;durP2;ratioP2;P2;SDS_P1;SDS_P2;PMS_P1;PMS_P2;Temp;Humidity;BMP_temperature;BMP_pressure;BME280_temperature;BME280_humidity;BME280_pressure;Samples;Min_cycle;Max_cycle;Signal;HPM_P1;HPM_P2
2023/10/24 00:01:30;;;;;;;;;;;;;;;10.88;100.00;100176.56;5034645;28;19937;-94
2023/10/24 00:04:02;;;;;;;;;;;;;;;10.99;100.00;100177.19;5034415;28;19917;-94
2023/10/24 00:06:27;;;;;;;;;;;;;;;11.04;100.00;100171.81;5019081;28;20020;-94
2023/10/24 00:08:58;;;;;;;;;;;;;;;11.06;100.00;100173.50;4998362;28;20345;-94
2023/10/24 00:11:24;;;;;;;;;;;;;;;11.14;100.00;100177.72;5014772;28;20416;-94
2023/10/24 00:13:59;;;;;;;;;;;;;;;11.29;100.00;100184.31;5014678;28;19990;-94
2023/10/24 00:16:35;;;;;;;;;;;;;;;11.04;100.00;100175.28;5014582;28;19952;-93
2023/10/24 00:19:00;;;;;;;;;;;;;;;11.12;100.00;100179.47;4998905;28;19917;-93
2023/10/24 00:21:26;;;;;;;;;;;;;;;11.17;100.00;100181.09;4998306;28;19913;-94
2023/10/24 00:23:52;;;;;;;;;;;;;;;11.24;100.00;100177.41;4998620;28;19918;-94
2023/10/24 00:26:22;;;;;;;;;;;;;;;11.11;100.00;100172.53;5018274;28;19919;-94
2023/10/24 00:28:50;;;;;;;;;;;;;;;11.23;100.00;100173.09;5002727;28;19972;-94
2023/10/24 00:31:15;;;;;;;;;;;;;;;11.18;100.00;100174.09;5018642;28;19956;-93
2023/10/24 00:33:48;;;;;;;;;;;;;;;11.26;100.00;100173.00;5035194;28;19924;-94
2023/10/24 00:36:14;;;;;;;;;;;;;;;11.17;100.00;100167.97;5018606;28;20293;-94
2023/10/24 00:38:39;;;;;;;;;;;;;;;11.24;100.00;100171.31;5018753;28;19959;-94
2023/10/24 00:41:13;;;;;;;;;;;;;;;11.13;100.00;100165.47;5002259;28;19917;-94
2023/10/24 00:44:03;;;;;;;;;;;;;;;11.09;100.00;100173.44;5035950;28;20001;-94
2023/10/24 00:46:42;;;;;;;;;;;;;;;11.00;100.00;100178.88;5033777;28;19913;-94
2023/10/24 00:49:13;;;;;;;;;;;;;;;11.18;100.00;100179.34;5002188;28;19956;-93
2023/10/24 00:54:51;;;;;;;;;;;;;;;11.17;100.00;100175.84;5035963;28;19924;-94
2023/10/24 00:57:18;;;;;;;;;;;;;;;11.16;100.00;100179.41;5001686;28;20337;-94
2023/10/24 00:59:43;;;;;;;;;;;;;;;11.18;100.00;100189.84;5019426;28;19996;-94
2023/10/24 01:02:21;;;;;;;;;;;;;;;11.11;100.00;100185.66;5037696;28;19956;-94
2023/10/24 01:07:49;;;;;;;;;;;;;;;11.07;100.00;100185.69;5054789;28;20303;-93
2023/10/24 01:10:14;;;;;;;;;;;;;;;11.16;100.00;100183.75;5037740;28;20004;-93
2023/10/24 01:12:40;;;;;;;;;;;;;;;11.12;100.00;100184.72;5054141;28;20238;-93
2023/10/24 01:18:14;;;;;;;;;;;;;;;11.16;100.00;100174.16;5055580;28;19919;-94
2023/10/24 01:23:43;;;;;;;;;;;;;;;11.18;100.00;100172.34;5049138;28;19971;-94
2023/10/24 01:29:11;;;;;;;;;;;;;;;11.13;100.00;100173.34;5055194;28;19920;-93
2023/10/24 01:31:36;;;;;;;;;;;;;;;11.05;100.00;100177.03;5054845;28;19917;-94
2023/10/24 01:34:07;;;;;;;;;;;;;;;11.08;100.00;100179.56;5037177;28;19982;-94
2023/10/24 01:36:38;;;;;;;;;;;;;;;11.01;100.00;100175.38;5021054;28;19924;-93
2023/10/24 01:39:09;;;;;;;;;;;;;;;10.98;100.00;100180.69;5037552;28;20402;-93
2023/10/24 01:41:37;;;;;;;;;;;;;;;11.00;100.00;100178.88;5037030;28;19999;-93
2023/10/24 01:44:10;;;;;;;;;;;;;;;10.98;100.00;100179.84;5020467;28;19968;-94
2023/10/24 01:46:38;;;;;;;;;;;;;;;11.04;100.00;100185.78;5019976;28;19917;-94
2023/10/24 01:49:04;;;;;;;;;;;;;;;10.97;100.00;100178.09;5020380;28;19917;-94
2023/10/24 01:54:32;;;;;;;;;;;;;;;10.95;100.00;100166.78;5054644;28;20012;-94
2023/10/24 01:57:00;;;;;;;;;;;;;;;11.01;100.00;100175.38;5054575;28;19944;-94
2023/10/24 01:59:28;;;;;;;;;;;;;;;10.96;100.00;100172.03;5036381;28;19913;-94
2023/10/24 02:01:53;;;;;;;;;;;;;;;11.06;100.00;100165.66;5036264;28;19924;-93
2023/10/24 02:04:37;;;;;;;;;;;;;;;11.04;100.00;100164.81;5054296;28;19971;-94
2023/10/24 02:07:14;;;;;;;;;;;;;;;11.02;100.00;100165.72;5045709;28;19920;-93
2023/10/24 02:09:42;;;;;;;;;;;;;;;11.13;100.00;100168.09;5056361;28;19920;-94
2023/10/24 02:12:08;;;;;;;;;;;;;;;11.04;100.00;100164.81;5073307;28;20339;-94
2023/10/24 02:17:36;;;;;;;;;;;;;;;11.11;100.00;100165.53;5074063;28;19966;-94
2023/10/24 02:20:02;;;;;;;;;;;;;;;11.08;100.00;100161.22;5072934;28;20225;-94
2023/10/24 02:22:49;;;;;;;;;;;;;;;11.13;100.00;100163.72;5051818;28;20162;-94
2023/10/24 02:25:15;;;;;;;;;;;;;;;11.07;100.00;100156.84;5051380;28;19922;-94
2023/10/24 02:27:46;;;;;;;;;;;;;;;11.01;100.00;100151.78;5072858;28;20372;-94
2023/10/24 02:30:24;;;;;;;;;;;;;;;10.96;100.00;100156.28;5056543;28;20383;-93
2023/10/24 02:32:49;;;;;;;;;;;;;;;10.95;100.00;100162.41;5055662;28;20229;-94
2023/10/24 02:35:17;;;;;;;;;;;;;;;10.94;100.00;100165.94;5055758;28;19935;-93
2023/10/24 02:37:52;;;;;;;;;;;;;;;10.91;100.00;100166.84;5056179;28;20364;-93
2023/10/24 02:40:18;;;;;;;;;;;;;;;10.94;100.00;100175.56;5055983;28;19917;-94
2023/10/24 02:42:49;;;;;;;;;;;;;;;10.91;100.00;100179.13;5055857;28;19923;-93
2023/10/24 02:45:15;;;;;;;;;;;;;;;11.02;100.00;100173.59;5055860;28;20319;-93
2023/10/24 02:47:41;;;;;;;;;;;;;;;10.84;100.00;100183.63;5039389;28;19942;-94
2023/10/24 02:50:08;;;;;;;;;;;;;;;10.84;100.00;100190.66;5056035;28;19919;-93
2023/10/24 02:52:39;;;;;;;;;;;;;;;10.81;100.00;100182.84;5055731;28;19943;-94
2023/10/24 03:01:10;;;;;;;;;;;;;;;10.88;100.00;100190.53;5073204;28;19923;-93
2023/10/24 03:03:36;;;;;;;;;;;;;;;10.85;100.00;100192.38;5055166;28;19920;-93
2023/10/24 03:09:08;;;;;;;;;;;;;;;10.84;100.00;100185.41;5066555;28;19997;-94
2023/10/24 03:11:33;;;;;;;;;;;;;;;10.83;100.00;100191.53;5055594;28;19917;-94
2023/10/24 03:14:01;;;;;;;;;;;;;;;10.76;100.00;100188.22;5055496;28;20261;-94
2023/10/24 03:16:26;;;;;;;;;;;;;;;10.74;100.00;100184.75;5054590;28;19912;-93
2023/10/24 03:18:56;;;;;;;;;;;;;;;10.72;100.00;100190.03;5055383;28;20365;-94
2023/10/24 03:21:26;;;;;;;;;;;;;;;10.80;100.00;100189.00;5034747;28;20284;-93
2023/10/24 03:23:52;;;;;;;;;;;;;;;10.72;100.00;100186.56;5034665;28;20012;-94
2023/10/24 03:26:20;;;;;;;;;;;;;;;10.83;100.00;100189.78;5036052;28;19936;-93
2023/10/24 03:28:45;;;;;;;;;;;;;;;10.87;100.00;100198.44;5035308;28;19920;-93
2023/10/24 03:31:11;;;;;;;;;;;;;;;10.77;100.00;100197.78;5035323;28;19921;-94
2023/10/24 03:33:37;;;;;;;;;;;;;;;10.72;100.00;100190.03;5035388;28;19916;-93
2023/10/24 03:36:02;;;;;;;;;;;;;;;10.77;100.00;100194.31;5034434;28;19913;-94
2023/10/24 03:38:33;;;;;;;;;;;;;;;10.73;100.00;100202.25;5035042;28;19971;-93
2023/10/24 03:40:58;;;;;;;;;;;;;;;10.66;100.00;100200.66;5035495;28;20281;-94
2023/10/24 03:43:28;;;;;;;;;;;;;;;10.65;100.00;100193.69;5051674;28;19917;-93
2023/10/24 03:49:11;;;;;;;;;;;;;;;10.60;100.00;100185.03;5052953;28;19920;-93
2023/10/24 03:54:40;;;;;;;;;;;;;;;10.67;100.00;100191.88;5072799;28;19977;-93
2023/10/24 03:57:10;;;;;;;;;;;;;;;10.58;100.00;100197.34;5071509;28;19946;-93
2023/10/24 03:59:38;;;;;;;;;;;;;;;10.56;100.00;100199.13;5071074;28;20007;-93
2023/10/24 04:02:03;;;;;;;;;;;;;;;10.61;100.00;100202.50;5054118;28;19955;-93
2023/10/24 04:04:47;;;;;;;;;;;;;;;10.55;100.00;100200.03;5054915;28;19967;-94
2023/10/24 04:07:19;;;;;;;;;;;;;;;10.59;100.00;100199.06;5054872;28;19912;-93
2023/10/24 04:09:44;;;;;;;;;;;;;;;10.53;100.00;100205.31;5054390;28;20015;-94
2023/10/24 04:12:10;;;;;;;;;;;;;;;10.62;100.00;100200.75;5071528;28;20074;-94
2023/10/24 04:14:57;;;;;;;;;;;;;;;10.57;100.00;100191.25;5054910;28;19912;-94
2023/10/24 04:17:25;;;;;;;;;;;;;;;10.64;100.00;100191.94;5053490;28;19924;-95
2023/10/24 04:19:50;;;;;;;;;;;;;;;10.56;100.00;100191.28;5054762;28;20259;-93
2023/10/24 04:22:22;;;;;;;;;;;;;;;10.51;100.00;100191.34;5074349;28;19923;-94
2023/10/24 04:24:50;;;;;;;;;;;;;;;10.48;100.00;100187.97;5058502;28;19970;-94
2023/10/24 04:27:16;;;;;;;;;;;;;;;10.50;100.00;100178.28;5041285;28;19916;-94
2023/10/24 04:29:42;;;;;;;;;;;;;;;10.50;100.00;100173.06;5075239;28;19919;-93
2023/10/24 04:32:07;;;;;;;;;;;;;;;10.45;100.00;100173.16;5075293;28;19922;-93
2023/10/24 04:34:37;;;;;;;;;;;;;;;10.45;100.00;100160.06;5076091;28;19966;-94
2023/10/24 04:37:03;;;;;;;;;;;;;;;10.45;100.00;100164.44;5048912;28;19970;-94
2023/10/24 04:39:33;;;;;;;;;;;;;;;10.50;100.00;100162.56;5054887;28;19913;-93
2023/10/24 04:42:01;;;;;;;;;;;;;;;10.53;100.00;100162.50;5071361;28;20003;-94
2023/10/24 04:44:26;;;;;;;;;;;;;;;10.50;100.00;100176.56;5071286;28;19971;-93
2023/10/24 04:46:53;;;;;;;;;;;;;;;10.54;100.00;100154.63;5074207;28;19916;-94
2023/10/24 04:49:19;;;;;;;;;;;;;;;10.42;100.00;100164.53;5074634;28;19912;-94
2023/10/24 04:54:47;;;;;;;;;;;;;;;10.39;100.00;100168.06;5075649;28;19924;-93
2023/10/24 04:57:13;;;;;;;;;;;;;;;10.39;100.00;100166.31;5058025;28;19920;-94
2023/10/24 04:59:39;;;;;;;;;;;;;;;10.42;100.00;100170.63;5057655;28;20003;-93
2023/10/24 05:02:04;;;;;;;;;;;;;;;10.39;100.00;100171.53;5040871;28;19979;-94
2023/10/24 05:08:01;;;;;;;;;;;;;;;;;;;;;
2023/10/24 05:10:26;;;;;;;;;;;;;;;10.36;100.00;100181.22;5069960;28;19927;-93
2023/10/24 05:12:53;;;;;;;;;;;;;;;10.52;100.00;100181.75;5075426;28;20353;-93
2023/10/24 05:18:22;;;;;;;;;;;;;;;10.37;100.00;100183.81;5075324;28;19923;-93
2023/10/24 05:30:05;;;;;;;;;;;;;;;10.30;100.00;100182.19;5055008;28;19920;-93
2023/10/24 05:32:37;;;;;;;;;;;;;;;10.36;100.00;100174.22;5063061;28;19927;-94
2023/10/24 05:35:02;;;;;;;;;;;;;;;10.25;100.00;100159.63;5056210;28;19932;-91
2023/10/24 05:37:27;;;;;;;;;;;;;;;10.30;100.00;100149.88;5073136;28;20353;-92
2023/10/24 05:39:53;;;;;;;;;;;;;;;10.23;100.00;100149.19;5059222;28;19966;-91
2023/10/24 05:42:18;;;;;;;;;;;;;;;10.23;100.00;100146.56;5072300;28;19926;-92
2023/10/24 05:44:43;;;;;;;;;;;;;;;10.25;100.00;100150.00;5053670;28;20265;-91
2023/10/24 05:47:09;;;;;;;;;;;;;;;10.27;100.00;100150.84;5073677;28;19939;-91
2023/10/24 05:49:38;;;;;;;;;;;;;;;10.22;100.00;100150.91;5056298;28;19923;-91
2023/10/24 05:52:03;;;;;;;;;;;;;;;10.19;100.00;100152.75;5074027;28;19917;-92
2023/10/24 05:54:29;;;;;;;;;;;;;;;10.23;100.00;100159.66;5056394;28;20237;-91
2023/10/24 05:56:54;;;;;;;;;;;;;;;10.25;100.00;100163.09;5061180;28;20327;-90
2023/10/24 05:59:19;;;;;;;;;;;;;;;10.28;100.00;100168.25;5058555;28;19917;-92
2023/10/24 06:01:45;;;;;;;;;;;;;;;10.21;100.00;100164.03;5081944;28;19965;-90
2023/10/24 06:04:10;;;;;;;;;;;;;;;10.28;100.00;100173.50;5070983;28;19985;-91
2023/10/24 06:06:35;;;;;;;;;;;;;;;10.29;100.00;100175.22;5058878;28;19921;-91
2023/10/24 06:09:01;;;;;;;;;;;;;;;10.46;100.00;100182.75;5055474;28;19933;-92
2023/10/24 06:11:26;;;;;;;;;;;;;;;10.51;100.00;100187.88;5045324;28;19920;-91
2023/10/24 06:13:51;;;;;;;;;;;;;;;10.48;100.00;100185.34;5044916;28;19920;-91
2023/10/24 06:16:17;;;;;;;;;;;;;;;10.33;100.00;100187.38;5035900;28;20296;-91
2023/10/24 06:18:42;;;;;;;;;;;;;;;10.28;100.00;100180.50;5036031;28;20253;-91
2023/10/24 06:21:08;;;;;;;;;;;;;;;10.18;100.00;100166.72;5042527;28;19939;-91
2023/10/24 06:23:34;;;;;;;;;;;;;;;10.17;100.00;100151.91;5042180;28;19965;-91
2023/10/24 06:29:06;;;;;;;;;;;;;;;10.18;100.00;100146.63;5053713;28;19923;-91
2023/10/24 06:31:31;;;;;;;;;;;;;;;10.22;100.00;100163.16;5035636;28;19920;-91
2023/10/24 06:33:56;;;;;;;;;;;;;;;10.21;100.00;100167.53;5035781;28;19996;-91
2023/10/24 06:36:22;;;;;;;;;;;;;;;10.21;100.00;100177.13;5053980;28;19944;-91
2023/10/24 06:38:47;;;;;;;;;;;;;;;10.25;100.00;100184.03;5053226;28;19999;-90
2023/10/24 06:41:13;;;;;;;;;;;;;;;10.33;100.00;100192.59;5043124;28;19917;-91
2023/10/24 06:43:39;;;;;;;;;;;;;;;10.33;100.00;100192.59;5051817;28;19920;-91
2023/10/24 06:49:08;;;;;;;;;;;;;;;10.33;100.00;100196.94;5033415;28;20420;-91
2023/10/24 06:51:34;;;;;;;;;;;;;;;10.31;100.00;100193.53;5028708;28;20349;-91
2023/10/24 07:00:21;;;;;;;;;;;;;;;10.28;100.00;100190.97;5052670;28;20040;-91
2023/10/24 07:02:49;;;;;;;;;;;;;;;10.33;100.00;100179.50;5053019;28;19916;-92
2023/10/24 07:08:36;;;;;;;;;;;;;;;10.19;100.00;100165.84;5057403;28;19926;-91
2023/10/24 07:11:10;;;;;;;;;;;;;;;10.19;100.00;100176.31;5052856;28;20021;-91
2023/10/24 07:13:53;;;;;;;;;;;;;;;10.29;100.00;100179.59;5042026;28;19924;-92
2023/10/24 07:16:28;;;;;;;;;;;;;;;10.35;100.00;100182.97;5056761;28;19913;-92
2023/10/24 07:18:53;;;;;;;;;;;;;;;10.39;100.00;100189.03;5078762;28;20089;-92
2023/10/24 07:21:23;;;;;;;;;;;;;;;10.32;100.00;100176.91;5044514;28;20023;-92
2023/10/24 07:26:55;;;;;;;;;;;;;;;10.31;100.00;100181.28;5072888;28;19963;-93
2023/10/24 07:32:15;;;;;;;;;;;;;;;10.32;100.00;100169.91;5070670;28;19913;-91
2023/10/24 07:37:49;;;;;;;;;;;;;;;10.38;100.00;100169.81;5072627;28;19930;-92
2023/10/24 07:40:23;;;;;;;;;;;;;;;10.46;100.00;100177.50;5054470;28;20190;-92
2023/10/24 07:42:48;;;;;;;;;;;;;;;10.48;100.00;100180.94;5053314;28;19919;-92
2023/10/24 07:48:20;;;;;;;;;;;;;;;10.49;100.00;100179.22;5066831;28;19919;-92
2023/10/24 08:06:29;;;;;;;;;;;;;;;10.87;100.00;100177.47;5018280;28;20023;-94
2023/10/24 08:09:21;;;;;;;;;;;;;;;10.83;100.00;100166.19;4995756;28;19961;-91
2023/10/24 08:12:00;;;;;;;;;;;;;;;10.94;100.00;100157.22;4996081;28;19928;-92
2023/10/24 08:30:03;;;;;;;;;;;;;;;;;;;;;
2023/10/24 08:35:44;;;;;;;;;;;;;;;14.44;90.79;100188.47;5033749;28;19971;-92
2023/10/24 08:38:31;;;;;;;;;;;;;;;14.97;85.78;100192.59;5017610;28;20004;-92
2023/10/24 08:40:57;;;;;;;;;;;;;;;15.00;86.01;100204.81;5001950;28;19967;-92
2023/10/24 08:43:25;;;;;;;;;;;;;;;15.15;84.19;100209.44;5023319;28;19952;-92
2023/10/24 08:55:33;;;;;;;;;;;;;;;15.13;83.38;100198.09;5053041;28;19920;-92
2023/10/24 08:58:14;;;;;;;;;;;;;;;14.64;84.60;100197.41;5057880;28;19995;-92
2023/10/24 09:00:39;;;;;;;;;;;;;;;14.20;84.79;100196.38;5050451;28;19912;-92
2023/10/24 09:03:05;;;;;;;;;;;;;;;13.96;86.96;100199.91;5057790;28;19973;-92
2023/10/24 09:05:42;;;;;;;;;;;;;;;13.74;87.83;100205.94;5073748;28;20380;-92
2023/10/24 09:08:10;;;;;;;;;;;;;;;13.48;88.65;100197.19;5056123;28;19912;-92
2023/10/24 09:10:35;;;;;;;;;;;;;;;13.33;90.32;100200.28;5056967;28;19923;-91
2023/10/24 09:13:09;;;;;;;;;;;;;;;13.34;90.28;100189.75;5073818;28;20348;-92
2023/10/24 09:18:43;;;;;;;;;;;;;;;13.59;89.48;100177.50;5073095;28;19924;-92
2023/10/24 09:24:14;;;;;;;;;;;;;;;13.26;91.50;100160.19;5071415;28;20050;-93
2023/10/24 09:26:55;;;;;;;;;;;;;;;13.23;92.38;100162.03;5055932;28;20403;-92
2023/10/24 09:29:24;;;;;;;;;;;;;;;13.30;92.53;100161.81;5076346;28;19977;-92
2023/10/24 09:31:51;;;;;;;;;;;;;;;13.17;92.14;100161.34;5072686;28;20011;-92
2023/10/24 09:37:22;;;;;;;;;;;;;;;13.12;92.64;100172.94;5075879;28;20384;-93
2023/10/24 09:39:54;;;;;;;;;;;;;;;13.07;93.67;100173.06;5061627;28;19936;-92
2023/10/24 09:42:46;;;;;;;;;;;;;;;13.15;92.18;100176.31;5036961;28;20430;-92
2023/10/24 09:45:12;;;;;;;;;;;;;;;13.11;92.84;100172.06;5047243;28;19921;-91
2023/10/24 09:47:37;;;;;;;;;;;;;;;13.31;92.03;100176.66;5036903;28;19913;-91
2023/10/24 09:50:03;;;;;;;;;;;;;;;13.21;91.70;100159.47;5036850;28;19913;-92
2023/10/24 09:52:29;;;;;;;;;;;;;;;13.24;92.29;100155.88;5037366;28;20381;-91
2023/10/24 09:54:58;;;;;;;;;;;;;;;13.27;92.88;100158.41;5037100;28;19977;-92
2023/10/24 09:57:29;;;;;;;;;;;;;;;13.25;93.22;100152.34;5037104;28;19913;-92
2023/10/24 09:59:58;;;;;;;;;;;;;;;13.17;92.64;100145.56;5053507;28;20439;-92
2023/10/24 10:02:24;;;;;;;;;;;;;;;13.10;93.46;100149.31;5052191;28;20003;-91
2023/10/24 10:04:53;;;;;;;;;;;;;;;12.96;94.46;100151.53;5055056;28;19963;-92
2023/10/24 10:07:20;;;;;;;;;;;;;;;13.03;94.31;100163.59;5074146;28;19913;-92
2023/10/24 10:09:47;;;;;;;;;;;;;;;12.98;94.66;100154.97;5057317;28;19974;-93
2023/10/24 10:12:13;;;;;;;;;;;;;;;12.91;95.11;100162.19;5057146;28;20380;-92
2023/10/24 10:20:54;;;;;;;;;;;;;;;12.85;95.08;100172.91;5073904;28;20361;-92
2023/10/24 10:23:35;;;;;;;;;;;;;;;12.81;95.88;100171.28;5069767;28;19967;-92
2023/10/24 10:26:13;;;;;;;;;;;;;;;12.77;95.63;100170.53;5055913;28;19921;-93
2023/10/24 10:28:38;;;;;;;;;;;;;;;12.80;95.45;100167.81;5080709;28;20003;-92
2023/10/24 10:31:23;;;;;;;;;;;;;;;12.69;95.68;100166.44;5066377;28;20098;-92
2023/10/24 10:40:23;;;;;;;;;;;;;;;12.57;96.86;100144.88;5073154;28;19984;-93
2023/10/24 10:42:49;;;;;;;;;;;;;;;12.59;96.72;100147.47;5072936;28;20027;-91
2023/10/24 10:51:24;;;;;;;;;;;;;;;12.44;97.51;100139.13;5073792;28;19954;-93
2023/10/24 10:54:12;;;;;;;;;;;;;;;12.41;97.38;100139.25;5072344;28;19916;-92
2023/10/24 10:56:39;;;;;;;;;;;;;;;12.40;97.80;100148.03;5043258;28;19927;-92
2023/10/24 10:59:04;;;;;;;;;;;;;;;12.28;98.86;100146.63;5049092;28;19913;-93
2023/10/24 11:01:48;;;;;;;;;;;;;;;12.31;98.86;100132.50;5052485;28;19938;-93
2023/10/24 11:04:16;;;;;;;;;;;;;;;12.20;99.71;100140.75;5052435;28;19917;-92
2023/10/24 11:06:50;;;;;;;;;;;;;;;12.18;99.74;100142.53;5042171;28;19962;-92
2023/10/24 11:09:15;;;;;;;;;;;;;;;12.12;100.00;100143.59;5071640;28;19912;-93
2023/10/24 11:11:44;;;;;;;;;;;;;;;12.13;100.00;100145.31;5075046;28;20031;-93
2023/10/24 11:14:16;;;;;;;;;;;;;;;12.07;100.00;100142.88;5051603;28;19913;-92
2023/10/24 11:16:44;;;;;;;;;;;;;;;12.00;100.00;100146.56;5051929;28;20015;-94
2023/10/24 11:19:17;;;;;;;;;;;;;;;11.91;100.00;100146.78;5055277;28;20313;-93
2023/10/24 11:24:52;;;;;;;;;;;;;;;11.86;100.00;100148.69;5072951;28;19946;-93
2023/10/24 11:27:17;;;;;;;;;;;;;;;11.71;100.00;100150.84;5055047;28;19912;-93
2023/10/24 11:29:43;;;;;;;;;;;;;;;11.62;100.00;100151.06;5044495;28;19923;-93
2023/10/24 11:32:08;;;;;;;;;;;;;;;11.60;100.00;100150.28;5061822;28;20262;-92
2023/10/24 11:37:38;;;;;;;;;;;;;;;11.57;100.00;100159.09;5078350;28;19967;-92
2023/10/24 11:40:07;;;;;;;;;;;;;;;11.66;100.00;100151.88;5060929;28;20030;-92
2023/10/24 11:42:38;;;;;;;;;;;;;;;11.70;100.00;100156.13;5057989;28;19916;-91
2023/10/24 11:45:05;;;;;;;;;;;;;;;11.71;100.00;100157.84;5055979;28;19916;-91
2023/10/24 11:47:31;;;;;;;;;;;;;;;11.64;100.00;100156.28;5053239;28;19962;-92
2023/10/24 11:49:56;;;;;;;;;;;;;;;11.63;100.00;100152.81;5065119;28;20251;-91
2023/10/24 11:52:22;;;;;;;;;;;;;;;11.55;100.00;100152.16;5079719;28;20390;-92
2023/10/24 11:55:04;;;;;;;;;;;;;;;11.50;100.00;100157.53;5061372;28;19912;-91
2023/10/24 11:57:31;;;;;;;;;;;;;;;11.41;100.00;100147.28;5033953;28;19916;-92
2023/10/24 11:59:58;;;;;;;;;;;;;;;11.32;100.00;100143.16;5044786;28;19917;-91
2023/10/24 12:02:45;;;;;;;;;;;;;;;11.35;100.00;100144.81;5059028;28;19954;-91
2023/10/24 12:05:19;;;;;;;;;;;;;;;11.24;100.00;100148.56;5059405;28;19932;-90
2023/10/24 12:07:51;;;;;;;;;;;;;;;11.25;100.00;100137.19;5059628;28;19912;-91
2023/10/24 12:10:16;;;;;;;;;;;;;;;11.20;100.00;100122.47;5060911;28;19913;-91
2023/10/24 12:12:44;;;;;;;;;;;;;;;11.15;100.00;100124.34;5071531;28;20394;-92
2023/10/24 12:15:10;;;;;;;;;;;;;;;11.05;100.00;100121.13;5078464;28;20411;-92
2023/10/24 12:17:36;;;;;;;;;;;;;;;11.00;100.00;100126.44;5060077;28;19923;-92
2023/10/24 12:20:01;;;;;;;;;;;;;;;11.00;100.00;100122.97;5084742;28;20318;-92
2023/10/24 12:22:29;;;;;;;;;;;;;;;10.97;100.00;100123.91;5061650;28;19913;-92
2023/10/24 12:24:54;;;;;;;;;;;;;;;11.01;100.00;100117.69;5064346;28;19944;-93
2023/10/24 12:27:22;;;;;;;;;;;;;;;10.94;100.00;100120.53;5054829;28;19912;-92
2023/10/24 12:29:53;;;;;;;;;;;;;;;10.90;100.00;100112.72;5071207;28;20007;-92
2023/10/24 12:32:18;;;;;;;;;;;;;;;10.83;100.00;100107.66;5044985;28;19917;-92
2023/10/24 12:34:44;;;;;;;;;;;;;;;10.85;100.00;100106.72;5061299;28;19923;-93
2023/10/24 12:37:09;;;;;;;;;;;;;;;10.83;100.00;100099.78;5061143;28;19913;-92
2023/10/24 12:39:34;;;;;;;;;;;;;;;10.88;100.00;100097.94;5079316;28;19912;-92
2023/10/24 12:42:00;;;;;;;;;;;;;;;10.75;100.00;100100.00;5074808;28;20348;-92
2023/10/24 12:44:25;;;;;;;;;;;;;;;10.77;100.00;100124.41;5058269;28;19916;-92
2023/10/24 12:46:56;;;;;;;;;;;;;;;10.85;100.00;100116.38;5065451;28;19970;-92
2023/10/24 12:49:21;;;;;;;;;;;;;;;11.08;100.00;100118.41;5058072;28;19924;-92
2023/10/24 12:55:16;;;;;;;;;;;;;;;13.12;100.00;100101.91;5075550;28;20280;-92
2023/10/24 12:57:56;;;;;;;;;;;;;;;14.70;93.78;100102.25;5057467;28;19916;-93
2023/10/24 13:00:22;;;;;;;;;;;;;;;16.10;84.02;100111.19;5072714;28;19923;-93
2023/10/24 13:02:47;;;;;;;;;;;;;;;16.34;86.38;100106.53;5041829;28;19916;-92
2023/10/24 13:08:34;;;;;;;;;;;;;;;14.85;89.12;100117.44;5074723;28;19919;-92
2023/10/24 13:10:59;;;;;;;;;;;;;;;14.37;92.28;100110.56;5074358;28;20272;-92
2023/10/24 13:13:24;;;;;;;;;;;;;;;14.15;93.91;100105.25;5058837;28;19925;-92
2023/10/24 13:16:10;;;;;;;;;;;;;;;13.98;95.26;100109.41;5037632;28;19916;-92
2023/10/24 13:18:38;;;;;;;;;;;;;;;13.85;96.37;100101.09;5053661;28;19917;-92
2023/10/24 13:24:25;;;;;;;;;;;;;;;13.60;96.38;100098.47;5054808;28;19974;-92
2023/10/24 13:26:50;;;;;;;;;;;;;;;13.49;96.98;100090.16;5038043;28;19917;-92
2023/10/24 13:29:21;;;;;;;;;;;;;;;13.47;97.51;100086.69;5034396;28;19940;-91
2023/10/24 13:31:48;;;;;;;;;;;;;;;13.49;98.18;100088.34;5051905;28;19920;-91
2023/10/24 13:34:13;;;;;;;;;;;;;;;13.52;98.16;100093.50;5033016;28;19940;-91
2023/10/24 13:36:40;;;;;;;;;;;;;;;13.62;98.39;100098.44;5052099;28;19924;-91
2023/10/24 13:39:06;;;;;;;;;;;;;;;13.63;97.87;100087.00;5036342;28;19917;-91
2023/10/24 13:41:31;;;;;;;;;;;;;;;13.60;97.01;100084.47;5035814;28;19923;-91
2023/10/24 13:43:59;;;;;;;;;;;;;;;13.52;98.18;100090.88;5047779;28;19917;-91
2023/10/24 13:46:25;;;;;;;;;;;;;;;13.57;98.12;100082.81;5036030;28;19954;-91
2023/10/24 13:48:50;;;;;;;;;;;;;;;13.59;98.12;100086.25;5018974;28;20369;-91
2023/10/24 13:54:21;;;;;;;;;;;;;;;13.49;98.27;100092.78;5049914;28;20281;-91
2023/10/24 13:56:46;;;;;;;;;;;;;;;13.46;97.49;100106.91;5018614;28;19925;-91
2023/10/24 13:59:20;;;;;;;;;;;;;;;13.41;98.52;100113.22;5016138;28;19917;-91
2023/10/24 14:01:45;;;;;;;;;;;;;;;13.31;98.79;100118.78;5049636;28;19924;-91
2023/10/24 14:04:13;;;;;;;;;;;;;;;13.29;98.47;100111.88;5036008;28;19917;-91
2023/10/24 14:06:41;;;;;;;;;;;;;;;13.32;98.95;100109.13;5054272;28;20307;-92
2023/10/24 14:09:07;;;;;;;;;;;;;;;13.33;96.37;100098.53;5035674;28;19921;-91
2023/10/24 14:11:32;;;;;;;;;;;;;;;13.40;95.43;100104.47;5036271;28;19970;-91
2023/10/24 14:13:57;;;;;;;;;;;;;;;13.21;95.58;100111.25;5035248;28;19924;-91
2023/10/24 14:16:23;;;;;;;;;;;;;;;13.16;96.33;100114.91;5053907;28;19952;-91
2023/10/24 14:18:48;;;;;;;;;;;;;;;13.07;96.53;100112.56;5049122;28;20565;-91
2023/10/24 14:21:17;;;;;;;;;;;;;;;13.11;93.96;100116.81;5061722;28;19932;-91
2023/10/24 14:23:42;;;;;;;;;;;;;;;12.96;94.82;100112.94;5052447;28;19939;-91
2023/10/24 14:26:10;;;;;;;;;;;;;;;12.86;95.88;100121.19;5052674;28;19917;-91
2023/10/24 14:28:38;;;;;;;;;;;;;;;12.92;95.18;100118.38;5052824;28;19917;-91
2023/10/24 14:31:03;;;;;;;;;;;;;;;13.09;93.19;100116.03;5052540;28;19917;-90
2023/10/24 14:33:29;;;;;;;;;;;;;;;12.89;93.98;100110.59;5052449;28;19913;-91
2023/10/24 14:35:54;;;;;;;;;;;;;;;12.86;94.59;100105.41;5051826;28;20254;-91
2023/10/24 14:38:19;;;;;;;;;;;;;;;12.92;94.41;100099.97;5035935;28;19940;-91
2023/10/24 14:40:59;;;;;;;;;;;;;;;12.89;94.55;100100.06;5052050;28;19917;-91
2023/10/24 14:43:24;;;;;;;;;;;;;;;12.91;94.31;100096.44;5035643;28;19924;-90
2023/10/24 14:45:50;;;;;;;;;;;;;;;12.87;93.72;100093.97;5035186;28;19921;-91
2023/10/24 14:48:36;;;;;;;;;;;;;;;12.75;94.71;100096.09;5051381;28;19913;-91
2023/10/24 14:51:16;;;;;;;;;;;;;;;12.77;94.87;100099.56;5032055;28;19967;-91
2023/10/24 15:00:00;;;;;;;;;;;;;;;12.69;95.57;100098.09;5031481;28;19924;-91
2023/10/24 15:08:40;;;;;;;;;;;;;;;12.46;96.95;100084.75;5022548;28;20030;-90
2023/10/24 15:11:06;;;;;;;;;;;;;;;12.42;97.52;100091.00;5030526;28;19923;-91
2023/10/24 15:13:51;;;;;;;;;;;;;;;12.41;97.81;100088.44;5039443;28;20344;-91
2023/10/24 15:16:34;;;;;;;;;;;;;;;12.42;97.94;100085.75;4994237;28;19917;-91
2023/10/24 15:19:20;;;;;;;;;;;;;;;12.34;98.14;100095.66;5007098;28;20384;-91
2023/10/24 15:22:05;;;;;;;;;;;;;;;12.31;98.15;100101.00;5034102;28;20411;-92
2023/10/24 15:30:49;;;;;;;;;;;;;;;12.12;99.73;100088.44;5048971;28;20412;-90
2023/10/24 15:33:34;;;;;;;;;;;;;;;12.12;100.00;100087.56;5034470;28;20357;-90
2023/10/24 15:36:01;;;;;;;;;;;;;;;12.15;99.90;100090.09;5051141;28;19920;-91
2023/10/24 15:41:44;;;;;;;;;;;;;;;12.08;100.00;100088.56;5028507;28;19990;-91
2023/10/24 15:44:09;;;;;;;;;;;;;;;12.12;100.00;100093.69;5010700;28;20012;-92
2023/10/24 15:46:36;;;;;;;;;;;;;;;12.06;100.00;100085.97;5014951;28;19921;-92
2023/10/24 15:49:01;;;;;;;;;;;;;;;12.07;100.00;100079.84;5032676;28;20023;-90
2023/10/24 15:51:29;;;;;;;;;;;;;;;12.08;100.00;100084.19;5052098;28;19948;-91
2023/10/24 15:54:03;;;;;;;;;;;;;;;12.08;100.00;100092.06;5019217;28;19921;-92
2023/10/24 15:56:31;;;;;;;;;;;;;;;12.07;100.00;100090.34;5018155;28;19952;-92
2023/10/24 15:58:57;;;;;;;;;;;;;;;12.05;100.00;100092.16;5034458;28;19912;-93